sensor_id;sensor_type;location;lat;lon;timestamp;temperature;humidity
29211;DHT22;16250;49.932;10.980;2022-09-09T00:01:10;14.40;99.90
29211;DHT22;16250;49.932;10.980;2022-09-09T00:06:42;14.50;99.90
29211;DHT22;16250;49.932;10.980;2022-09-09T00:09:18;14.40;99.90
29211;DHT22;16250;49.932;10.980;2022-09-09T00:14:55;14.50;99.90
29211;DHT22;16250;49.932;10.980;2022-09-09T00:17:32;14.60;99.90
29211;DHT22;16250;49.932;10.980;2022-09-09T00:22:50;14.70;99.90
29211;DHT22;16250;49.932;10.980;2022-09-09T00:28:23;14.60;99.90
29211;DHT22;16250;49.932;10.980;2022-09-09T00:30:50;14.50;99.90
29211;DHT22;16250;49.932;10.980;2022-09-09T00:33:18;14.60;99.90
29211;DHT22;16250;49.932;10.980;2022-09-09T00:35:51;14.70;99.90
29211;DHT22;16250;49.932;10.980;2022-09-09T00:38:31;14.90;99.90
29211;DHT22;16250;49.932;10.980;2022-09-09T00:41:06;14.90;99.90
29211;DHT22;16250;49.932;10.980;2022-09-09T00:43:39;14.60;99.90
29211;DHT22;16250;49.932;10.980;2022-09-09T00:46:38;14.50;99.90
29211;DHT22;16250;49.932;10.980;2022-09-09T00:51:53;14.70;99.90
29211;DHT22;16250;49.932;10.980;2022-09-09T00:54:37;15.00;99.90
29211;DHT22;16250;49.932;10.980;2022-09-09T01:03:02;15.30;99.90
29211;DHT22;16250;49.932;10.980;2022-09-09T01:05:46;15.30;99.90
29211;DHT22;16250;49.932;10.980;2022-09-09T01:11:00;15.30;99.90
29211;DHT22;16250;49.932;10.980;2022-09-09T01:13:30;15.40;99.90
29211;DHT22;16250;49.932;10.980;2022-09-09T01:16:01;15.40;99.90
29211;DHT22;16250;49.932;10.980;2022-09-09T01:18:37;15.40;99.90
29211;DHT22;16250;49.932;10.980;2022-09-09T01:21:33;15.30;99.90
29211;DHT22;16250;49.932;10.980;2022-09-09T01:26:43;15.40;99.90
29211;DHT22;16250;49.932;10.980;2022-09-09T01:29:11;15.40;99.90
29211;DHT22;16250;49.932;10.980;2022-09-09T01:34:18;15.40;99.90
29211;DHT22;16250;49.932;10.980;2022-09-09T01:36:52;15.30;99.90
29211;DHT22;16250;49.932;10.980;2022-09-09T01:39:21;15.20;99.90
29211;DHT22;16250;49.932;10.980;2022-09-09T01:41:47;15.20;99.90
29211;DHT22;16250;49.932;10.980;2022-09-09T01:44:13;15.20;99.90
29211;DHT22;16250;49.932;10.980;2022-09-09T01:46:38;15.10;99.90
29211;DHT22;16250;49.932;10.980;2022-09-09T01:49:06;15.20;99.90
29211;DHT22;16250;49.932;10.980;2022-09-09T01:51:33;15.20;99.90
29211;DHT22;16250;49.932;10.980;2022-09-09T01:53:59;15.20;99.90
29211;DHT22;16250;49.932;10.980;2022-09-09T01:59:33;15.20;99.90
29211;DHT22;16250;49.932;10.980;2022-09-09T02:02:30;15.00;99.90
29211;DHT22;16250;49.932;10.980;2022-09-09T02:07:49;15.10;99.90
29211;DHT22;16250;49.932;10.980;2022-09-09T02:10:29;15.20;99.90
29211;DHT22;16250;49.932;10.980;2022-09-09T02:13:03;15.20;99.90
29211;DHT22;16250;49.932;10.980;2022-09-09T02:15:40;15.20;99.90
29211;DHT22;16250;49.932;10.980;2022-09-09T02:18:09;15.20;99.90
29211;DHT22;16250;49.932;10.980;2022-09-09T02:20:38;15.20;99.90
29211;DHT22;16250;49.932;10.980;2022-09-09T02:23:05;15.20;99.90
29211;DHT22;16250;49.932;10.980;2022-09-09T02:25:33;15.10;99.90
29211;DHT22;16250;49.932;10.980;2022-09-09T02:28:03;15.10;99.90
29211;DHT22;16250;49.932;10.980;2022-09-09T02:30:31;15.10;99.90
29211;DHT22;16250;49.932;10.980;2022-09-09T02:32:58;15.20;99.90
29211;DHT22;16250;49.932;10.980;2022-09-09T02:35:25;15.20;99.90
29211;DHT22;16250;49.932;10.980;2022-09-09T02:37:56;15.10;99.90
29211;DHT22;16250;49.932;10.980;2022-09-09T02:40:24;15.20;99.90
29211;DHT22;16250;49.932;10.980;2022-09-09T02:42:50;15.00;99.90
29211;DHT22;16250;49.932;10.980;2022-09-09T02:45:18;14.90;99.90
29211;DHT22;16250;49.932;10.980;2022-09-09T02:50:53;15.10;99.90
29211;DHT22;16250;49.932;10.980;2022-09-09T02:53:27;15.20;99.90
29211;DHT22;16250;49.932;10.980;2022-09-09T02:56:04;15.10;99.90
29211;DHT22;16250;49.932;10.980;2022-09-09T02:58:31;15.10;99.90
29211;DHT22;16250;49.932;10.980;2022-09-09T03:00:57;15.20;99.90
29211;DHT22;16250;49.932;10.980;2022-09-09T03:03:23;15.10;99.90
29211;DHT22;16250;49.932;10.980;2022-09-09T03:05:49;15.10;99.90
29211;DHT22;16250;49.932;10.980;2022-09-09T03:08:15;15.00;99.90
29211;DHT22;16250;49.932;10.980;2022-09-09T03:10:41;15.30;99.90
29211;DHT22;16250;49.932;10.980;2022-09-09T03:13:06;15.10;99.90
29211;DHT22;16250;49.932;10.980;2022-09-09T03:15:33;15.10;99.90
29211;DHT22;16250;49.932;10.980;2022-09-09T03:17:59;15.10;99.90
29211;DHT22;16250;49.932;10.980;2022-09-09T03:20:26;15.10;99.90
29211;DHT22;16250;49.932;10.980;2022-09-09T03:22:53;15.10;99.90
29211;DHT22;16250;49.932;10.980;2022-09-09T03:25:19;15.10;99.90
29211;DHT22;16250;49.932;10.980;2022-09-09T03:27:44;15.10;99.90
29211;DHT22;16250;49.932;10.980;2022-09-09T03:30:10;15.30;99.90
29211;DHT22;16250;49.932;10.980;2022-09-09T03:32:36;15.10;99.90
29211;DHT22;16250;49.932;10.980;2022-09-09T03:35:02;15.10;99.90
29211;DHT22;16250;49.932;10.980;2022-09-09T03:37:27;15.10;99.90
29211;DHT22;16250;49.932;10.980;2022-09-09T03:39:53;15.10;99.90
29211;DHT22;16250;49.932;10.980;2022-09-09T03:42:20;15.10;99.90
29211;DHT22;16250;49.932;10.980;2022-09-09T03:44:46;15.10;99.90
29211;DHT22;16250;49.932;10.980;2022-09-09T03:47:18;15.10;99.90
29211;DHT22;16250;49.932;10.980;2022-09-09T03:49:45;15.10;99.90
29211;DHT22;16250;49.932;10.980;2022-09-09T03:52:11;15.40;99.90
29211;DHT22;16250;49.932;10.980;2022-09-09T03:54:37;15.20;99.90
29211;DHT22;16250;49.932;10.980;2022-09-09T03:57:03;15.20;99.90
29211;DHT22;16250;49.932;10.980;2022-09-09T03:59:30;15.10;99.90
29211;DHT22;16250;49.932;10.980;2022-09-09T04:01:55;15.10;99.90
29211;DHT22;16250;49.932;10.980;2022-09-09T04:04:22;15.00;99.90
29211;DHT22;16250;49.932;10.980;2022-09-09T04:06:48;15.10;99.90
29211;DHT22;16250;49.932;10.980;2022-09-09T04:09:14;15.10;99.90
29211;DHT22;16250;49.932;10.980;2022-09-09T04:11:40;15.00;99.90
29211;DHT22;16250;49.932;10.980;2022-09-09T04:14:05;15.00;99.90
29211;DHT22;16250;49.932;10.980;2022-09-09T04:16:32;15.00;99.90
29211;DHT22;16250;49.932;10.980;2022-09-09T04:18:58;15.10;99.90
29211;DHT22;16250;49.932;10.980;2022-09-09T04:21:25;15.10;99.90
29211;DHT22;16250;49.932;10.980;2022-09-09T04:23:51;15.20;99.90
29211;DHT22;16250;49.932;10.980;2022-09-09T04:26:17;15.20;99.90
29211;DHT22;16250;49.932;10.980;2022-09-09T04:28:42;15.20;99.90
29211;DHT22;16250;49.932;10.980;2022-09-09T04:31:11;15.20;99.90
29211;DHT22;16250;49.932;10.980;2022-09-09T04:33:39;15.20;99.90
29211;DHT22;16250;49.932;10.980;2022-09-09T04:36:05;15.10;99.90
29211;DHT22;16250;49.932;10.980;2022-09-09T04:38:31;15.20;99.90
29211;DHT22;16250;49.932;10.980;2022-09-09T04:40:56;15.20;99.90
29211;DHT22;16250;49.932;10.980;2022-09-09T04:43:22;15.10;99.90
29211;DHT22;16250;49.932;10.980;2022-09-09T04:45:49;15.00;99.90
29211;DHT22;16250;49.932;10.980;2022-09-09T04:48:15;15.10;99.90
29211;DHT22;16250;49.932;10.980;2022-09-09T04:50:41;15.20;99.90
29211;DHT22;16250;49.932;10.980;2022-09-09T04:53:06;15.20;99.90
29211;DHT22;16250;49.932;10.980;2022-09-09T04:55:34;15.20;99.90
29211;DHT22;16250;49.932;10.980;2022-09-09T04:58:07;15.30;99.90
29211;DHT22;16250;49.932;10.980;2022-09-09T05:00:34;15.30;99.90
29211;DHT22;16250;49.932;10.980;2022-09-09T05:03:05;15.20;99.90
29211;DHT22;16250;49.932;10.980;2022-09-09T05:05:31;15.10;99.90
29211;DHT22;16250;49.932;10.980;2022-09-09T05:08:07;15.30;99.90
29211;DHT22;16250;49.932;10.980;2022-09-09T05:10:37;15.30;99.90
29211;DHT22;16250;49.932;10.980;2022-09-09T05:13:02;15.30;99.90
29211;DHT22;16250;49.932;10.980;2022-09-09T05:15:29;15.30;99.90
29211;DHT22;16250;49.932;10.980;2022-09-09T05:17:58;15.30;99.90
29211;DHT22;16250;49.932;10.980;2022-09-09T05:20:25;15.30;99.90
29211;DHT22;16250;49.932;10.980;2022-09-09T05:22:53;15.30;99.90
29211;DHT22;16250;49.932;10.980;2022-09-09T05:25:19;15.40;99.90
29211;DHT22;16250;49.932;10.980;2022-09-09T05:27:45;15.50;99.90
29211;DHT22;16250;49.932;10.980;2022-09-09T05:30:11;15.30;99.90
29211;DHT22;16250;49.932;10.980;2022-09-09T05:32:36;15.40;99.90
29211;DHT22;16250;49.932;10.980;2022-09-09T05:35:02;15.30;99.90
29211;DHT22;16250;49.932;10.980;2022-09-09T05:37:28;15.30;99.90
29211;DHT22;16250;49.932;10.980;2022-09-09T05:39:55;15.20;99.90
29211;DHT22;16250;49.932;10.980;2022-09-09T05:42:21;15.30;99.90
29211;DHT22;16250;49.932;10.980;2022-09-09T05:44:46;15.40;99.90
29211;DHT22;16250;49.932;10.980;2022-09-09T05:47:12;15.30;99.90
29211;DHT22;16250;49.932;10.980;2022-09-09T05:49:37;15.40;99.90
29211;DHT22;16250;49.932;10.980;2022-09-09T05:52:03;15.40;99.90
29211;DHT22;16250;49.932;10.980;2022-09-09T05:54:29;15.40;99.90
29211;DHT22;16250;49.932;10.980;2022-09-09T05:56:55;15.40;99.90
29211;DHT22;16250;49.932;10.980;2022-09-09T05:59:20;15.50;99.90
29211;DHT22;16250;49.932;10.980;2022-09-09T06:01:48;15.50;99.90
29211;DHT22;16250;49.932;10.980;2022-09-09T06:04:14;15.50;99.90
29211;DHT22;16250;49.932;10.980;2022-09-09T06:06:40;15.50;99.90
29211;DHT22;16250;49.932;10.980;2022-09-09T06:09:09;15.60;99.90
29211;DHT22;16250;49.932;10.980;2022-09-09T06:11:37;15.60;99.90
29211;DHT22;16250;49.932;10.980;2022-09-09T06:14:03;15.50;99.90
29211;DHT22;16250;49.932;10.980;2022-09-09T06:16:30;15.50;99.90
29211;DHT22;16250;49.932;10.980;2022-09-09T06:18:58;15.60;99.90
29211;DHT22;16250;49.932;10.980;2022-09-09T06:21:26;15.60;99.90
29211;DHT22;16250;49.932;10.980;2022-09-09T06:23:52;15.50;99.90
29211;DHT22;16250;49.932;10.980;2022-09-09T06:26:26;15.40;99.90
29211;DHT22;16250;49.932;10.980;2022-09-09T06:28:53;15.40;99.90
29211;DHT22;16250;49.932;10.980;2022-09-09T06:31:21;15.50;99.90
29211;DHT22;16250;49.932;10.980;2022-09-09T06:33:49;15.50;99.90
29211;DHT22;16250;49.932;10.980;2022-09-09T06:36:22;15.70;99.90
29211;DHT22;16250;49.932;10.980;2022-09-09T06:38:48;15.90;99.90
29211;DHT22;16250;49.932;10.980;2022-09-09T06:41:16;16.20;99.90
29211;DHT22;16250;49.932;10.980;2022-09-09T06:43:42;16.60;99.90
29211;DHT22;16250;49.932;10.980;2022-09-09T06:46:16;16.60;99.90
29211;DHT22;16250;49.932;10.980;2022-09-09T06:48:43;16.60;99.90
29211;DHT22;16250;49.932;10.980;2022-09-09T06:51:15;16.70;99.90
29211;DHT22;16250;49.932;10.980;2022-09-09T06:53:42;16.60;99.90
29211;DHT22;16250;49.932;10.980;2022-09-09T06:58:55;16.70;99.90
29211;DHT22;16250;49.932;10.980;2022-09-09T07:01:23;16.70;99.90
29211;DHT22;16250;49.932;10.980;2022-09-09T07:03:51;16.80;99.90
29211;DHT22;16250;49.932;10.980;2022-09-09T07:08:51;16.80;99.90
29211;DHT22;16250;49.932;10.980;2022-09-09T07:11:18;16.90;99.90
29211;DHT22;16250;49.932;10.980;2022-09-09T07:13:44;16.80;99.90
29211;DHT22;16250;49.932;10.980;2022-09-09T07:16:11;17.00;99.90
29211;DHT22;16250;49.932;10.980;2022-09-09T07:18:39;16.80;99.90
29211;DHT22;16250;49.932;10.980;2022-09-09T07:21:05;16.80;99.90
29211;DHT22;16250;49.932;10.980;2022-09-09T07:23:31;16.90;99.90
29211;DHT22;16250;49.932;10.980;2022-09-09T07:25:58;16.90;99.90
29211;DHT22;16250;49.932;10.980;2022-09-09T07:28:25;17.00;99.90
29211;DHT22;16250;49.932;10.980;2022-09-09T07:30:59;17.10;99.90
29211;DHT22;16250;49.932;10.980;2022-09-09T07:33:27;17.00;99.90
29211;DHT22;16250;49.932;10.980;2022-09-09T07:36:09;17.30;99.90
29211;DHT22;16250;49.932;10.980;2022-09-09T07:38:39;17.30;99.90
29211;DHT22;16250;49.932;10.980;2022-09-09T07:41:09;17.40;99.90
29211;DHT22;16250;49.932;10.980;2022-09-09T07:43:38;17.50;99.90
29211;DHT22;16250;49.932;10.980;2022-09-09T07:46:05;17.50;99.90
29211;DHT22;16250;49.932;10.980;2022-09-09T07:48:31;17.40;99.90
29211;DHT22;16250;49.932;10.980;2022-09-09T07:51:11;17.50;99.90
29211;DHT22;16250;49.932;10.980;2022-09-09T07:53:38;17.70;99.90
29211;DHT22;16250;49.932;10.980;2022-09-09T07:56:11;17.70;99.90
29211;DHT22;16250;49.932;10.980;2022-09-09T07:58:38;17.60;99.90
29211;DHT22;16250;49.932;10.980;2022-09-09T08:03:58;17.40;99.90
29211;DHT22;16250;49.932;10.980;2022-09-09T08:06:25;17.50;99.90
29211;DHT22;16250;49.932;10.980;2022-09-09T08:08:52;17.50;99.90
29211;DHT22;16250;49.932;10.980;2022-09-09T08:11:18;17.60;99.90
29211;DHT22;16250;49.932;10.980;2022-09-09T08:13:44;17.70;99.90
29211;DHT22;16250;49.932;10.980;2022-09-09T08:16:19;17.90;99.90
29211;DHT22;16250;49.932;10.980;2022-09-09T08:18:51;17.80;99.90
29211;DHT22;16250;49.932;10.980;2022-09-09T08:21:28;17.80;99.90
29211;DHT22;16250;49.932;10.980;2022-09-09T08:23:56;17.80;99.90
29211;DHT22;16250;49.932;10.980;2022-09-09T08:26:24;18.00;99.90
29211;DHT22;16250;49.932;10.980;2022-09-09T08:28:51;17.90;99.90
29211;DHT22;16250;49.932;10.980;2022-09-09T08:31:42;18.10;99.90
29211;DHT22;16250;49.932;10.980;2022-09-09T08:34:08;18.10;99.90
29211;DHT22;16250;49.932;10.980;2022-09-09T08:36:38;18.40;99.90
29211;DHT22;16250;49.932;10.980;2022-09-09T08:39:05;18.30;99.90
29211;DHT22;16250;49.932;10.980;2022-09-09T08:45:03;18.20;99.90
29211;DHT22;16250;49.932;10.980;2022-09-09T08:50:08;18.20;99.90
29211;DHT22;16250;49.932;10.980;2022-09-09T08:57:49;18.60;99.90
29211;DHT22;16250;49.932;10.980;2022-09-09T09:00:17;18.60;99.90
29211;DHT22;16250;49.932;10.980;2022-09-09T09:02:54;18.60;99.90
29211;DHT22;16250;49.932;10.980;2022-09-09T09:05:36;18.60;99.90
29211;DHT22;16250;49.932;10.980;2022-09-09T09:08:26;18.70;99.90
29211;DHT22;16250;49.932;10.980;2022-09-09T09:10:57;18.90;99.90
29211;DHT22;16250;49.932;10.980;2022-09-09T09:16:33;18.90;99.90
29211;DHT22;16250;49.932;10.980;2022-09-09T09:19:00;19.10;99.90
29211;DHT22;16250;49.932;10.980;2022-09-09T09:21:36;19.00;99.90
29211;DHT22;16250;49.932;10.980;2022-09-09T09:24:12;19.20;99.90
29211;DHT22;16250;49.932;10.980;2022-09-09T09:26:43;19.10;99.90
29211;DHT22;16250;49.932;10.980;2022-09-09T09:29:15;19.30;99.90
29211;DHT22;16250;49.932;10.980;2022-09-09T09:31:51;19.20;99.90
29211;DHT22;16250;49.932;10.980;2022-09-09T09:34:17;19.30;99.90
29211;DHT22;16250;49.932;10.980;2022-09-09T09:36:59;19.50;99.90
29211;DHT22;16250;49.932;10.980;2022-09-09T09:39:31;19.80;99.90
29211;DHT22;16250;49.932;10.980;2022-09-09T09:42:10;19.70;99.90
29211;DHT22;16250;49.932;10.980;2022-09-09T09:44:39;20.00;99.90
29211;DHT22;16250;49.932;10.980;2022-09-09T09:49:38;19.60;99.90
29211;DHT22;16250;49.932;10.980;2022-09-09T09:52:06;19.50;99.90
29211;DHT22;16250;49.932;10.980;2022-09-09T09:54:38;19.70;99.90
29211;DHT22;16250;49.932;10.980;2022-09-09T09:57:09;19.60;99.90
29211;DHT22;16250;49.932;10.980;2022-09-09T09:59:36;19.50;99.90
29211;DHT22;16250;49.932;10.980;2022-09-09T10:04:38;20.60;99.90
29211;DHT22;16250;49.932;10.980;2022-09-09T10:07:20;20.50;99.90
29211;DHT22;16250;49.932;10.980;2022-09-09T10:09:53;20.40;99.90
29211;DHT22;16250;49.932;10.980;2022-09-09T10:12:33;20.20;99.90
29211;DHT22;16250;49.932;10.980;2022-09-09T10:15:39;20.10;99.90
29211;DHT22;16250;49.932;10.980;2022-09-09T10:18:13;20.50;99.90
29211;DHT22;16250;49.932;10.980;2022-09-09T10:21:03;20.00;99.90
29211;DHT22;16250;49.932;10.980;2022-09-09T10:24:09;20.30;99.90
29211;DHT22;16250;49.932;10.980;2022-09-09T10:26:50;20.10;99.90
29211;DHT22;16250;49.932;10.980;2022-09-09T10:32:10;21.10;99.90
29211;DHT22;16250;49.932;10.980;2022-09-09T10:40:34;20.80;99.90
29211;DHT22;16250;49.932;10.980;2022-09-09T10:48:30;19.80;99.90
29211;DHT22;16250;49.932;10.980;2022-09-09T10:56:26;21.20;99.90
29211;DHT22;16250;49.932;10.980;2022-09-09T10:59:00;22.30;99.90
29211;DHT22;16250;49.932;10.980;2022-09-09T11:01:41;22.40;99.90
29211;DHT22;16250;49.932;10.980;2022-09-09T11:04:22;22.50;99.90
29211;DHT22;16250;49.932;10.980;2022-09-09T11:06:53;22.60;99.90
29211;DHT22;16250;49.932;10.980;2022-09-09T11:09:23;22.70;99.90
29211;DHT22;16250;49.932;10.980;2022-09-09T11:11:54;22.30;99.90
29211;DHT22;16250;49.932;10.980;2022-09-09T11:14:34;21.80;99.90
29211;DHT22;16250;49.932;10.980;2022-09-09T11:17:08;21.40;99.90
29211;DHT22;16250;49.932;10.980;2022-09-09T11:19:40;21.50;99.90
29211;DHT22;16250;49.932;10.980;2022-09-09T11:22:32;22.00;99.90
29211;DHT22;16250;49.932;10.980;2022-09-09T11:25:18;21.90;99.90
29211;DHT22;16250;49.932;10.980;2022-09-09T11:38:47;21.40;99.90
29211;DHT22;16250;49.932;10.980;2022-09-09T11:41:14;21.20;99.90
29211;DHT22;16250;49.932;10.980;2022-09-09T11:43:44;22.00;99.90
29211;DHT22;16250;49.932;10.980;2022-09-09T11:46:10;22.20;99.90
29211;DHT22;16250;49.932;10.980;2022-09-09T11:48:42;22.70;99.90
29211;DHT22;16250;49.932;10.980;2022-09-09T11:51:26;22.90;99.90
29211;DHT22;16250;49.932;10.980;2022-09-09T11:54:02;23.50;99.90
29211;DHT22;16250;49.932;10.980;2022-09-09T11:56:41;23.60;99.90
29211;DHT22;16250;49.932;10.980;2022-09-09T11:59:24;23.50;99.90
29211;DHT22;16250;49.932;10.980;2022-09-09T12:06:54;22.40;99.90
29211;DHT22;16250;49.932;10.980;2022-09-09T12:11:53;22.00;99.90
29211;DHT22;16250;49.932;10.980;2022-09-09T12:17:17;21.60;99.90
29211;DHT22;16250;49.932;10.980;2022-09-09T12:19:44;21.40;99.90
29211;DHT22;16250;49.932;10.980;2022-09-09T12:27:46;20.20;99.90
29211;DHT22;16250;49.932;10.980;2022-09-09T12:30:16;19.70;99.90
29211;DHT22;16250;49.932;10.980;2022-09-09T12:32:42;19.60;99.90
29211;DHT22;16250;49.932;10.980;2022-09-09T12:35:11;19.10;99.90
29211;DHT22;16250;49.932;10.980;2022-09-09T12:37:41;19.10;99.90
29211;DHT22;16250;49.932;10.980;2022-09-09T12:40:29;18.90;99.90
29211;DHT22;16250;49.932;10.980;2022-09-09T12:42:55;19.10;99.90
29211;DHT22;16250;49.932;10.980;2022-09-09T12:45:26;18.90;99.90
29211;DHT22;16250;49.932;10.980;2022-09-09T12:47:56;19.00;99.90
29211;DHT22;16250;49.932;10.980;2022-09-09T12:50:27;19.10;99.90
29211;DHT22;16250;49.932;10.980;2022-09-09T12:56:08;19.30;99.90
29211;DHT22;16250;49.932;10.980;2022-09-09T12:58:50;19.30;99.90
29211;DHT22;16250;49.932;10.980;2022-09-09T13:01:28;19.40;99.90
29211;DHT22;16250;49.932;10.980;2022-09-09T13:03:59;19.60;99.90
29211;DHT22;16250;49.932;10.980;2022-09-09T13:06:39;20.20;99.90
29211;DHT22;16250;49.932;10.980;2022-09-09T13:12:21;18.90;99.90
29211;DHT22;16250;49.932;10.980;2022-09-09T13:14:50;18.80;99.90
29211;DHT22;16250;49.932;10.980;2022-09-09T13:17:31;18.70;99.90
29211;DHT22;16250;49.932;10.980;2022-09-09T13:20:18;18.80;99.90
29211;DHT22;16250;49.932;10.980;2022-09-09T13:22:44;18.50;99.90
29211;DHT22;16250;49.932;10.980;2022-09-09T13:27:38;19.00;99.90
29211;DHT22;16250;49.932;10.980;2022-09-09T13:30:40;19.30;99.90
29211;DHT22;16250;49.932;10.980;2022-09-09T13:35:54;22.40;99.90
29211;DHT22;16250;49.932;10.980;2022-09-09T13:38:21;24.10;99.90
29211;DHT22;16250;49.932;10.980;2022-09-09T13:41:04;24.60;99.90
29211;DHT22;16250;49.932;10.980;2022-09-09T13:43:38;25.00;99.90
29211;DHT22;16250;49.932;10.980;2022-09-09T13:46:33;25.70;99.90
29211;DHT22;16250;49.932;10.980;2022-09-09T13:49:02;26.50;99.90
29211;DHT22;16250;49.932;10.980;2022-09-09T13:51:42;26.90;99.90
29211;DHT22;16250;49.932;10.980;2022-09-09T13:54:15;23.90;99.90
29211;DHT22;16250;49.932;10.980;2022-09-09T13:56:42;23.00;99.90
29211;DHT22;16250;49.932;10.980;2022-09-09T13:59:14;24.10;99.90
29211;DHT22;16250;49.932;10.980;2022-09-09T14:01:40;25.30;99.90
29211;DHT22;16250;49.932;10.980;2022-09-09T14:04:06;26.10;99.90
29211;DHT22;16250;49.932;10.980;2022-09-09T14:06:33;26.50;99.90
29211;DHT22;16250;49.932;10.980;2022-09-09T14:09:00;26.00;99.90
29211;DHT22;16250;49.932;10.980;2022-09-09T14:11:26;24.20;99.90
29211;DHT22;16250;49.932;10.980;2022-09-09T14:13:51;24.00;99.90
29211;DHT22;16250;49.932;10.980;2022-09-09T14:16:17;23.20;99.90
29211;DHT22;16250;49.932;10.980;2022-09-09T14:18:46;22.50;99.90
29211;DHT22;16250;49.932;10.980;2022-09-09T14:21:12;24.80;99.90
29211;DHT22;16250;49.932;10.980;2022-09-09T14:23:38;23.40;99.90
29211;DHT22;16250;49.932;10.980;2022-09-09T14:26:05;26.00;99.90
29211;DHT22;16250;49.932;10.980;2022-09-09T14:28:31;25.50;99.90
29211;DHT22;16250;49.932;10.980;2022-09-09T14:31:02;26.80;99.90
29211;DHT22;16250;49.932;10.980;2022-09-09T14:33:29;27.80;98.90
29211;DHT22;16250;49.932;10.980;2022-09-09T14:35:59;25.80;99.80
29211;DHT22;16250;49.932;10.980;2022-09-09T14:38:28;23.80;99.90
29211;DHT22;16250;49.932;10.980;2022-09-09T14:40:54;22.90;99.90
29211;DHT22;16250;49.932;10.980;2022-09-09T14:43:19;22.80;99.90
29211;DHT22;16250;49.932;10.980;2022-09-09T14:45:46;22.60;99.90
29211;DHT22;16250;49.932;10.980;2022-09-09T14:48:14;22.40;99.90
29211;DHT22;16250;49.932;10.980;2022-09-09T14:50:41;22.10;99.90
29211;DHT22;16250;49.932;10.980;2022-09-09T14:53:07;21.80;99.90
29211;DHT22;16250;49.932;10.980;2022-09-09T14:55:34;21.70;99.90
29211;DHT22;16250;49.932;10.980;2022-09-09T14:57:59;21.60;99.90
29211;DHT22;16250;49.932;10.980;2022-09-09T15:00:29;21.50;99.90
29211;DHT22;16250;49.932;10.980;2022-09-09T15:02:55;21.50;99.90
29211;DHT22;16250;49.932;10.980;2022-09-09T15:05:21;21.10;99.90
29211;DHT22;16250;49.932;10.980;2022-09-09T15:07:46;21.40;99.90
29211;DHT22;16250;49.932;10.980;2022-09-09T15:10:14;21.40;99.90
29211;DHT22;16250;49.932;10.980;2022-09-09T15:12:40;21.50;99.90
29211;DHT22;16250;49.932;10.980;2022-09-09T15:15:07;21.30;99.90
29211;DHT22;16250;49.932;10.980;2022-09-09T15:17:33;21.40;99.90
29211;DHT22;16250;49.932;10.980;2022-09-09T15:19:58;21.20;99.90
29211;DHT22;16250;49.932;10.980;2022-09-09T15:22:24;21.10;99.90
29211;DHT22;16250;49.932;10.980;2022-09-09T15:24:50;21.20;99.90
29211;DHT22;16250;49.932;10.980;2022-09-09T15:27:16;20.80;99.90
29211;DHT22;16250;49.932;10.980;2022-09-09T15:29:42;20.70;99.90
29211;DHT22;16250;49.932;10.980;2022-09-09T15:32:09;20.60;99.90
29211;DHT22;16250;49.932;10.980;2022-09-09T15:34:34;20.60;99.90
29211;DHT22;16250;49.932;10.980;2022-09-09T15:37:00;20.60;99.90
29211;DHT22;16250;49.932;10.980;2022-09-09T15:39:26;20.40;99.90
29211;DHT22;16250;49.932;10.980;2022-09-09T15:41:51;20.70;99.90
29211;DHT22;16250;49.932;10.980;2022-09-09T15:44:17;20.70;99.90
29211;DHT22;16250;49.932;10.980;2022-09-09T15:46:52;20.60;99.90
29211;DHT22;16250;49.932;10.980;2022-09-09T15:49:27;20.90;99.90
29211;DHT22;16250;49.932;10.980;2022-09-09T15:51:58;20.80;99.90
29211;DHT22;16250;49.932;10.980;2022-09-09T15:54:27;20.70;99.90
29211;DHT22;16250;49.932;10.980;2022-09-09T15:56:58;20.50;99.90
29211;DHT22;16250;49.932;10.980;2022-09-09T15:59:25;20.60;99.90
29211;DHT22;16250;49.932;10.980;2022-09-09T16:01:51;20.60;99.90
29211;DHT22;16250;49.932;10.980;2022-09-09T16:04:18;20.50;99.90
29211;DHT22;16250;49.932;10.980;2022-09-09T16:06:53;20.50;99.90
29211;DHT22;16250;49.932;10.980;2022-09-09T16:09:19;20.50;99.90
29211;DHT22;16250;49.932;10.980;2022-09-09T16:11:45;20.40;99.90
29211;DHT22;16250;49.932;10.980;2022-09-09T16:14:12;20.20;99.90
29211;DHT22;16250;49.932;10.980;2022-09-09T16:16:38;20.20;99.90
29211;DHT22;16250;49.932;10.980;2022-09-09T16:19:06;20.30;99.90
29211;DHT22;16250;49.932;10.980;2022-09-09T16:21:38;20.20;99.90
29211;DHT22;16250;49.932;10.980;2022-09-09T16:24:06;20.10;99.90
29211;DHT22;16250;49.932;10.980;2022-09-09T16:26:34;20.10;99.90
29211;DHT22;16250;49.932;10.980;2022-09-09T16:29:01;20.00;99.90
29211;DHT22;16250;49.932;10.980;2022-09-09T16:31:29;20.00;99.90
29211;DHT22;16250;49.932;10.980;2022-09-09T16:35:11;20.00;99.90
29211;DHT22;16250;49.932;10.980;2022-09-09T16:37:36;20.00;99.90
29211;DHT22;16250;49.932;10.980;2022-09-09T16:40:02;19.90;99.90
29211;DHT22;16250;49.932;10.980;2022-09-09T16:42:28;19.80;99.90
29211;DHT22;16250;49.932;10.980;2022-09-09T16:44:54;19.70;99.90
29211;DHT22;16250;49.932;10.980;2022-09-09T16:47:19;19.60;99.90
29211;DHT22;16250;49.932;10.980;2022-09-09T16:49:45;19.60;99.90
29211;DHT22;16250;49.932;10.980;2022-09-09T16:52:10;19.60;99.90
29211;DHT22;16250;49.932;10.980;2022-09-09T16:54:36;19.50;99.90
29211;DHT22;16250;49.932;10.980;2022-09-09T16:57:02;19.60;99.90
29211;DHT22;16250;49.932;10.980;2022-09-09T16:59:27;19.60;99.90
29211;DHT22;16250;49.932;10.980;2022-09-09T17:01:53;19.50;99.90
29211;DHT22;16250;49.932;10.980;2022-09-09T17:04:21;19.40;99.90
29211;DHT22;16250;49.932;10.980;2022-09-09T17:06:50;19.60;99.90
29211;DHT22;16250;49.932;10.980;2022-09-09T17:09:17;19.30;99.90
29211;DHT22;16250;49.932;10.980;2022-09-09T17:11:43;19.10;99.90
29211;DHT22;16250;49.932;10.980;2022-09-09T17:14:14;19.10;99.90
29211;DHT22;16250;49.932;10.980;2022-09-09T17:16:40;19.00;99.90
29211;DHT22;16250;49.932;10.980;2022-09-09T17:19:06;18.80;99.90
29211;DHT22;16250;49.932;10.980;2022-09-09T17:21:34;18.70;99.90
29211;DHT22;16250;49.932;10.980;2022-09-09T17:24:00;18.70;99.90
29211;DHT22;16250;49.932;10.980;2022-09-09T17:26:29;18.50;99.90
29211;DHT22;16250;49.932;10.980;2022-09-09T17:28:56;18.70;99.90
29211;DHT22;16250;49.932;10.980;2022-09-09T17:31:23;18.50;99.90
29211;DHT22;16250;49.932;10.980;2022-09-09T17:33:50;18.50;99.90
29211;DHT22;16250;49.932;10.980;2022-09-09T17:36:26;18.40;99.90